Armstrong, Texas
Current Conditions -  °F | °C
As of 8:35 PM on Wednesday 26 Nov 2014 (Local Time) from KBKS Reporting Station
Clear Clear  
Wind Chill: 56°   Ceiling: Unl
Heat Index: 56°   Visibility: 10mi
Dew Point: 41°   Wind: 3mph
Humidity: 57%   Direction: 150°SSE
Pressure: 30.27"   Gusts: NA
Location:  26.92°N, 97.79°W
Report Text: KBKS 270235Z AUTO 15003KT 10SM CLR 14/05 A3027 RMK AO1 T01360052
Loading
Personal Weather Stations






























Interactive Weather Map New forecast layout! Learn more

10-Day Weather Forecast

Advertisements
Track Severe Weather on mobile